Allston, Massachusetts
Current Conditions -  °F | °C
As of 7:54 PM on Sunday 23 Nov 2014 (Local Time) from KBOS Reporting Station
Overcast Overcast  
Wind Chill:   Ceiling: 11000
Heat Index:   Visibility: 10mi
Dew Point:   Wind: 6mph
Humidity: 63%   Direction: 180°S
Pressure: 30.14"   Gusts: NA
Location:  42.36°N, 71.13°W
Report Text: KBOS 240054Z 18005KT 10SM OVC110 09/02 A3014 RMK AO2 SLP205 T00890022
Loading
Personal Weather Stations






























Interactive Weather Map New forecast layout! Learn more

10-Day Weather Forecast

Advertisements
Track Severe Weather on mobile